Time;durP1;ratioP1;P1;durP2;ratioP2;P2;SDS_P1;SDS_P2;PMS_P1;PMS_P2;Temp;Humidity;BMP_temperature;BMP_pressure;BME280_temperature;BME280_humidity;BME280_pressure;Samples;Min_cycle;Max_cycle;Signal;HPM_P1;HPM_P2
2021/06/23 00:00:21;;;;;;;15.43;2.50;;;;;;;10.23;100.00;100894.13;5087937;28;20009;-79
2021/06/23 00:02:46;;;;;;;12.10;2.70;;;;;;;10.18;100.00;100894.16;5088745;28;20050;-79
2021/06/23 00:05:12;;;;;;;10.85;2.30;;;;;;;10.11;100.00;100900.28;5085438;28;20088;-78
2021/06/23 00:07:37;;;;;;;9.48;2.40;;;;;;;10.09;100.00;100899.44;5087800;28;20025;-79
2021/06/23 00:10:03;;;;;;;8.48;2.30;;;;;;;10.02;100.00;100901.25;5087749;28;20024;-79
2021/06/23 00:12:30;;;;;;;11.18;2.50;;;;;;;9.96;100.00;100901.31;5087488;28;20024;-79
2021/06/23 00:14:55;;;;;;;16.55;2.80;;;;;;;9.93;100.00;100895.31;5087729;28;20461;-78
2021/06/23 00:17:20;;;;;;;12.85;2.60;;;;;;;9.82;100.00;100893.69;5088199;28;20046;-78
2021/06/23 00:19:46;;;;;;;11.20;2.53;;;;;;;9.81;100.00;100891.94;5086620;28;20021;-78
2021/06/23 00:22:11;;;;;;;12.82;2.72;;;;;;;9.71;100.00;100895.50;5085398;28;20029;-78
2021/06/23 00:24:36;;;;;;;13.25;2.20;;;;;;;9.71;100.00;100895.50;5086008;28;20074;-78
2021/06/23 00:27:02;;;;;;;10.10;2.88;;;;;;;9.73;100.00;100888.59;5086239;28;20080;-78
2021/06/23 00:29:27;;;;;;;10.30;2.10;;;;;;;9.79;100.00;100885.94;5085115;28;20451;-78
2021/06/23 00:31:52;;;;;;;13.13;2.78;;;;;;;9.79;100.00;100882.47;5084597;28;20024;-78
2021/06/23 00:34:21;;;;;;;9.68;2.25;;;;;;;9.77;100.00;100873.88;5084920;28;20052;-78
2021/06/23 00:36:46;;;;;;;12.52;2.38;;;;;;;9.83;100.00;100873.81;5086821;28;20024;-78
2021/06/23 00:39:11;;;;;;;10.48;2.47;;;;;;;9.95;100.00;100865.06;5085609;28;20374;-78
2021/06/23 00:41:37;;;;;;;16.73;3.47;;;;;;;9.96;100.00;100869.34;5085765;28;20020;-78
2021/06/23 00:44:03;;;;;;;12.73;3.00;;;;;;;9.95;100.00;100872.84;5086021;28;20052;-79
2021/06/23 00:46:28;;;;;;;14.20;2.72;;;;;;;9.98;100.00;100865.88;5085828;28;20052;-78
2021/06/23 00:48:56;;;;;;;10.02;2.35;;;;;;;10.02;100.00;100866.69;5086366;28;20024;-78
2021/06/23 00:51:22;;;;;;;15.52;3.10;;;;;;;10.09;100.00;100871.78;5083342;28;20032;-78
2021/06/23 00:53:48;;;;;;;14.07;2.53;;;;;;;10.09;100.00;100873.53;5084172;28;20028;-78
2021/06/23 00:56:15;;;;;;;11.10;2.35;;;;;;;10.10;100.00;100877.84;5085621;28;20484;-78
2021/06/23 00:58:41;;;;;;;10.30;2.35;;;;;;;10.11;100.00;100879.56;5087036;28;20056;-78
2021/06/23 01:01:06;;;;;;;12.05;2.67;;;;;;;10.11;100.00;100889.94;5085652;28;20078;-77
2021/06/23 01:03:32;;;;;;;12.38;3.30;;;;;;;10.03;100.00;100897.75;5084646;28;20083;-78
2021/06/23 01:05:57;;;;;;;11.55;2.58;;;;;;;10.01;100.00;100902.13;5084459;28;20017;-78
2021/06/23 01:08:23;;;;;;;10.05;2.90;;;;;;;10.02;100.00;100887.44;5085270;28;20031;-78
2021/06/23 01:10:48;;;;;;;9.88;2.33;;;;;;;10.01;100.00;100888.31;5084817;28;20032;-78
2021/06/23 01:13:30;;;;;;;7.18;2.03;;;;;;;10.09;100.00;100876.13;5083051;28;20111;-79
2021/06/23 01:15:58;;;;;;;12.88;2.42;;;;;;;10.19;100.00;100879.47;5082382;28;20380;-78
2021/06/23 01:31:52;;;;;;;12.20;2.70;;;;;;;10.45;100.00;100859.31;5083705;28;20039;-78
2021/06/23 01:34:17;;;;;;;12.73;2.33;;;;;;;10.45;100.00;100868.81;5080100;28;20021;-78
2021/06/23 01:36:43;;;;;;;15.05;3.08;;;;;;;10.51;100.00;100861.81;5083118;28;20020;-77
2021/06/23 01:39:08;;;;;;;13.15;2.42;;;;;;;10.50;100.00;100873.06;5083766;28;20029;-77
2021/06/23 01:41:34;;;;;;;10.85;2.63;;;;;;;10.47;100.00;100878.31;5083295;28;20035;-78
2021/06/23 01:44:01;;;;;;;14.13;3.00;;;;;;;10.50;100.00;100879.97;5082938;28;20508;-78
2021/06/23 01:46:26;;;;;;;14.85;2.72;;;;;;;10.46;100.00;100881.75;5083561;28;20030;-78
2021/06/23 01:48:51;;;;;;;10.23;2.50;;;;;;;10.50;100.00;100892.94;5083281;28;20048;-78
2021/06/23 01:51:17;;;;;;;10.10;2.80;;;;;;;10.51;100.00;100890.34;5080549;28;20127;-78
2021/06/23 01:53:42;;;;;;;13.73;2.25;;;;;;;10.49;100.00;100894.69;5080668;28;20024;-79
2021/06/23 01:56:07;;;;;;;11.25;2.85;;;;;;;10.56;100.00;100901.53;5082151;28;20481;-78
2021/06/23 01:58:38;;;;;;;11.73;2.42;;;;;;;10.67;100.00;100896.19;5083279;28;20110;-78
2021/06/23 02:01:11;;;;;;;9.95;2.58;;;;;;;10.80;100.00;100895.13;5082745;28;20084;-78
2021/06/23 02:04:04;;;;;;;14.05;2.85;;;;;;;10.85;100.00;100909.81;5083946;28;20021;-78
2021/06/23 02:06:59;;;;;;;12.52;2.83;;;;;;;10.89;100.00;100912.31;5079598;28;20028;-78
2021/06/23 02:09:55;;;;;;;14.83;3.03;;;;;;;10.92;100.00;100903.63;5083492;28;20028;-79
2021/06/23 02:12:30;;;;;;;12.55;2.38;;;;;;;10.93;100.00;100913.13;5080710;28;20035;-79
2021/06/23 02:15:00;;;;;;;11.70;2.50;;;;;;;10.91;100.00;100914.91;5081201;28;20025;-78
2021/06/23 02:17:28;;;;;;;16.63;3.10;;;;;;;10.93;100.00;100913.13;5079597;28;20060;-79
2021/06/23 02:19:55;;;;;;;12.48;2.70;;;;;;;10.96;100.00;100915.69;5080537;28;20043;-78
2021/06/23 02:22:28;;;;;;;16.27;3.25;;;;;;;11.00;100.00;100915.63;5078822;28;20099;-78
2021/06/23 02:25:01;;;;;;;12.55;2.90;;;;;;;11.00;100.00;100920.81;5080783;28;20081;-78
2021/06/23 02:27:27;;;;;;;12.55;2.85;;;;;;;11.01;100.00;100916.47;5078808;28;20488;-79
2021/06/23 02:29:52;;;;;;;16.83;2.95;;;;;;;11.02;100.00;100926.84;5084841;28;20036;-78
2021/06/23 02:32:26;;;;;;;16.55;3.28;;;;;;;11.05;100.00;100920.75;5085426;28;20027;-79
2021/06/23 02:34:54;;;;;;;15.57;3.53;;;;;;;11.05;100.00;100923.34;5082938;28;20032;-78
2021/06/23 02:37:20;;;;;;;15.23;2.83;;;;;;;11.04;100.00;100925.09;5086890;28;20031;-78
2021/06/23 02:39:45;;;;;;;15.23;3.10;;;;;;;11.05;100.00;100923.34;5085136;28;20025;-78
2021/06/23 02:42:11;;;;;;;12.98;3.00;;;;;;;11.05;100.00;100920.75;5083881;28;20107;-79
2021/06/23 02:44:37;;;;;;;12.63;3.45;;;;;;;11.02;100.00;100924.25;5082101;28;20028;-78
2021/06/23 02:47:03;;;;;;;10.93;3.00;;;;;;;11.11;100.00;100923.25;5082345;28;20025;-78
2021/06/23 02:49:28;;;;;;;10.02;2.75;;;;;;;11.11;100.00;100925.00;5083189;28;20035;-78
2021/06/23 02:51:56;;;;;;;11.35;3.40;;;;;;;11.14;100.00;100923.19;5083607;28;20051;-78
2021/06/23 02:54:22;;;;;;;14.05;3.30;;;;;;;11.12;100.00;100921.53;5085378;28;20016;-78
2021/06/23 02:56:47;;;;;;;17.00;3.30;;;;;;;11.07;100.00;100925.03;5085060;28;20499;-78
2021/06/23 02:59:13;;;;;;;13.05;3.33;;;;;;;11.07;100.00;100927.63;5085418;28;20028;-78
2021/06/23 03:01:39;;;;;;;12.45;3.08;;;;;;;11.17;100.00;100930.09;5085197;28;20095;-79
2021/06/23 03:04:05;;;;;;;8.45;2.50;;;;;;;11.01;100.00;100926.88;5082864;28;20083;-78
2021/06/23 03:06:30;;;;;;;11.52;3.15;;;;;;;11.09;100.00;100937.16;5084760;28;20023;-78
2021/06/23 03:08:55;;;;;;;16.38;3.22;;;;;;;11.06;100.00;100932.84;5085592;28;20028;-78
2021/06/23 03:11:21;;;;;;;13.57;3.03;;;;;;;11.09;100.00;100937.16;5086536;28;20056;-79
2021/06/23 03:13:46;;;;;;;13.40;3.10;;;;;;;11.11;100.00;100944.00;5085532;28;20028;-78
2021/06/23 03:16:11;;;;;;;14.25;3.63;;;;;;;11.10;100.00;100955.28;5086289;28;20084;-78
2021/06/23 03:18:37;;;;;;;12.23;3.35;;;;;;;11.02;100.00;100964.91;5088199;28;20029;-78
2021/06/23 03:21:05;;;;;;;11.48;3.25;;;;;;;11.00;100.00;100964.94;5083494;28;20431;-78
2021/06/23 03:23:31;;;;;;;15.65;3.17;;;;;;;11.12;100.00;100961.31;5086003;28;20028;-79
2021/06/23 03:25:56;;;;;;;17.45;3.75;;;;;;;11.16;100.00;100963.00;5085099;28;20051;-78
2021/06/23 03:28:22;;;;;;;11.05;3.13;;;;;;;11.21;100.00;100962.94;5085963;28;20027;-79
2021/06/23 03:30:48;;;;;;;14.90;3.53;;;;;;;11.23;100.00;100966.34;5084903;28;20027;-79
2021/06/23 03:33:13;;;;;;;14.45;3.85;;;;;;;11.24;100.00;100965.50;5083991;28;20059;-79
2021/06/23 03:35:39;;;;;;;13.45;3.30;;;;;;;11.24;100.00;100970.69;5085733;28;20040;-79
2021/06/23 03:38:04;;;;;;;18.75;4.10;;;;;;;11.19;100.00;100973.34;5083097;28;20552;-78
2021/06/23 03:40:30;;;;;;;13.65;4.03;;;;;;;11.26;100.00;100969.75;5086664;28;20024;-78
2021/06/23 03:42:56;;;;;;;12.52;3.40;;;;;;;11.24;100.00;100966.34;5086113;28;20027;-78
2021/06/23 03:45:21;;;;;;;12.50;3.17;;;;;;;11.30;100.00;100965.41;5086851;28;20025;-78
2021/06/23 03:47:47;;;;;;;11.30;3.20;;;;;;;11.32;100.00;100968.81;5089381;28;20016;-78
2021/06/23 03:50:15;;;;;;;17.25;3.67;;;;;;;11.34;100.00;100966.22;5086485;28;20028;-79
2021/06/23 03:52:41;;;;;;;13.70;3.20;;;;;;;11.25;100.00;100975.84;5086302;28;20035;-79
2021/06/23 03:55:09;;;;;;;14.75;3.53;;;;;;;11.23;100.00;100976.75;5087597;28;20024;-78
2021/06/23 03:57:34;;;;;;;17.50;3.53;;;;;;;11.39;100.00;100979.97;5086953;28;20035;-78
2021/06/23 04:00:00;;;;;;;13.13;3.35;;;;;;;11.43;100.00;100985.09;5088834;28;20028;-78
2021/06/23 04:02:25;;;;;;;13.32;3.30;;;;;;;11.46;100.00;100985.06;5087860;28;20047;-78
2021/06/23 04:04:50;;;;;;;12.68;3.28;;;;;;;11.46;100.00;100979.03;5088199;28;20028;-78
2021/06/23 04:07:15;;;;;;;13.40;3.25;;;;;;;11.52;100.00;100991.91;5088039;28;20035;-78
2021/06/23 04:09:42;;;;;;;12.98;3.47;;;;;;;11.46;100.00;100990.25;5089167;28;20016;-78
2021/06/23 04:12:09;;;;;;;19.58;3.50;;;;;;;11.48;100.00;100982.44;5087972;28;20044;-78
2021/06/23 04:14:34;;;;;;;10.50;3.05;;;;;;;11.63;100.00;100992.59;5087320;28;20021;-78
2021/06/23 04:16:59;;;;;;;15.75;3.70;;;;;;;11.66;100.00;100986.50;5088036;28;20119;-78
2021/06/23 04:19:25;;;;;;;20.35;3.65;;;;;;;11.65;100.00;100980.44;5086069;28;20469;-79
2021/06/23 04:21:50;;;;;;;16.00;3.25;;;;;;;11.61;100.00;100975.34;5084791;28;20028;-78
2021/06/23 04:24:16;;;;;;;8.73;2.72;;;;;;;11.66;100.00;100970.91;5083613;28;20025;-78
2021/06/23 04:26:43;;;;;;;13.80;3.38;;;;;;;11.59;100.00;100961.50;5086766;28;20028;-78
2021/06/23 04:29:09;;;;;;;16.98;3.58;;;;;;;11.48;100.00;100956.44;5085997;28;20020;-78
2021/06/23 04:31:34;;;;;;;13.82;3.10;;;;;;;11.57;100.00;100964.09;5084808;28;20021;-79
2021/06/23 04:34:00;;;;;;;13.90;3.25;;;;;;;11.61;100.00;100968.38;5085376;28;20032;-80
2021/06/23 04:36:25;;;;;;;13.10;3.47;;;;;;;11.70;100.00;100973.44;5086213;28;20028;-78
2021/06/23 04:38:50;;;;;;;14.57;3.00;;;;;;;11.78;100.00;100975.03;5087776;28;20515;-78
2021/06/23 04:41:16;;;;;;;11.52;2.72;;;;;;;11.90;100.00;100967.06;5087348;28;20066;-79
2021/06/23 04:43:41;;;;;;;12.27;3.20;;;;;;;11.89;100.00;100970.56;5085432;28;20028;-79
2021/06/23 04:46:06;;;;;;;9.48;3.30;;;;;;;11.78;100.00;100986.28;5086208;28;20035;-79
2021/06/23 04:48:33;;;;;;;12.85;3.45;;;;;;;11.71;100.00;100988.13;5085620;28;20046;-78
2021/06/23 04:50:59;;;;;;;11.93;3.17;;;;;;;11.88;100.00;101000.88;5084982;28;20099;-78
2021/06/23 04:53:24;;;;;;;17.27;3.75;;;;;;;11.94;100.00;101002.53;5087501;28;20107;-79
2021/06/23 04:55:50;;;;;;;12.95;3.10;;;;;;;11.97;100.00;101002.47;5088240;28;20028;-77
2021/06/23 04:58:15;;;;;;;13.07;3.03;;;;;;;11.95;100.00;101004.25;5111208;22;20078;-77
2021/06/23 05:00:40;;;;;;;14.75;3.25;;;;;;;12.13;100.00;101005.66;5053237;28;20485;-79
2021/06/23 05:03:06;;;;;;;13.90;4.10;;;;;;;12.23;100.00;100998.56;5055530;28;20029;-79
2021/06/23 05:05:31;;;;;;;13.43;3.40;;;;;;;12.39;100.00;101000.84;5054882;28;20440;-78
2021/06/23 05:07:56;;;;;;;19.70;4.45;;;;;;;12.42;100.00;101002.56;5053416;28;20465;-78
2021/06/23 05:10:22;;;;;;;13.00;3.10;;;;;;;12.37;100.00;101006.97;5054484;28;20021;-78
2021/06/23 05:12:47;;;;;;;11.02;2.95;;;;;;;12.36;100.00;101008.72;5054192;28;20029;-79
2021/06/23 05:15:13;;;;;;;12.85;2.90;;;;;;;12.44;100.00;101006.84;5053511;28;20022;-78
2021/06/23 05:17:39;;;;;;;17.48;3.42;;;;;;;12.49;100.00;101019.75;5054615;28;20025;-78
2021/06/23 05:20:05;;;;;;;13.60;3.25;;;;;;;12.65;100.00;101021.19;5052975;28;20013;-79
2021/06/23 05:22:31;;;;;;;15.73;3.42;;;;;;;13.07;100.00;101012.53;5053817;28;20032;-78
2021/06/23 05:24:58;;;;;;;17.08;3.88;;;;;;;13.39;100.00;101014.44;5052402;28;20025;-79
2021/06/23 05:27:23;;;;;;;16.95;3.92;;;;;;;13.18;100.00;101010.56;5053488;28;20031;-78
2021/06/23 05:29:49;;;;;;;13.10;3.00;;;;;;;13.20;100.00;101016.56;5053367;28;20412;-79
2021/06/23 05:32:14;;;;;;;14.38;3.53;;;;;;;13.25;100.00;101017.38;5053341;28;20021;-79
2021/06/23 05:34:39;;;;;;;11.10;2.92;;;;;;;13.49;100.00;101008.16;5053593;28;20028;-79
2021/06/23 05:37:05;;;;;;;11.07;3.05;;;;;;;13.25;100.00;101000.91;5052315;28;20025;-79
2021/06/23 05:39:30;;;;;;;17.17;3.40;;;;;;;13.21;100.00;101007.91;5052320;28;20473;-79
2021/06/23 05:41:55;;;;;;;14.63;3.20;;;;;;;13.49;100.00;101013.38;5052210;28;20028;-79
2021/06/23 05:44:21;;;;;;;16.83;3.30;;;;;;;15.12;98.71;101009.97;5053286;28;20033;-79
2021/06/23 05:46:46;;;;;;;18.15;3.20;;;;;;;14.89;97.79;101010.63;5053393;28;20025;-79
2021/06/23 05:49:11;;;;;;;13.82;2.65;;;;;;;15.10;96.37;101011.75;5053415;28;20146;-79
2021/06/23 05:51:37;;;;;;;15.80;3.40;;;;;;;14.66;100.00;101020.91;5052133;28;20397;-79
2021/06/23 05:54:02;;;;;;;12.52;2.53;;;;;;;15.25;99.05;101007.84;5053406;28;20051;-79
2021/06/23 05:56:27;;;;;;;11.70;3.00;;;;;;;16.53;91.42;100999.28;5053406;28;20024;-79
2021/06/23 05:58:54;;;;;;;11.48;2.78;;;;;;;16.45;89.92;101003.94;5053276;28;20405;-79
2021/06/23 06:01:19;;;;;;;16.42;4.13;;;;;;;16.22;91.63;101007.34;5054342;28;20043;-79
2021/06/23 06:03:44;;;;;;;15.32;3.25;;;;;;;15.84;92.47;101009.50;5055072;28;20481;-79
2021/06/23 06:06:10;;;;;;;12.75;3.03;;;;;;;16.28;88.27;101008.00;5054688;28;20035;-79
2021/06/23 06:08:35;;;;;;;12.27;2.65;;;;;;;15.13;95.81;101016.06;5054374;28;20056;-79
2021/06/23 06:11:00;;;;;;;14.13;2.90;;;;;;;14.99;99.29;101026.88;5056278;28;20055;-79
2021/06/23 06:13:27;;;;;;;17.55;3.88;;;;;;;14.78;99.20;101020.56;5056022;28;20045;-79
2021/06/23 06:15:53;;;;;;;12.88;3.03;;;;;;;14.61;100.00;101025.38;5056368;28;20079;-79
2021/06/23 06:18:18;;;;;;;15.88;3.92;;;;;;;14.66;100.00;101028.72;5054620;28;20020;-79
2021/06/23 06:20:44;;;;;;;18.00;3.58;;;;;;;14.78;100.00;101025.78;5056056;28;20017;-79
2021/06/23 06:23:09;;;;;;;14.93;3.67;;;;;;;14.71;100.00;101026.81;5054274;28;20036;-79
2021/06/23 06:25:35;;;;;;;15.00;3.30;;;;;;;14.74;100.00;101034.56;5056977;28;20560;-79
2021/06/23 06:28:00;;;;;;;14.02;3.03;;;;;;;15.33;97.08;101034.63;5054356;28;20021;-79
2021/06/23 06:30:26;;;;;;;20.23;3.35;;;;;;;16.17;93.39;101038.09;5055172;28;20060;-78
2021/06/23 06:32:52;;;;;;;13.02;4.05;;;;;;;16.43;92.63;101043.25;5055937;28;20036;-79
2021/06/23 06:35:18;;;;;;;14.80;3.05;;;;;;;15.72;93.42;101044.75;5055738;28;20602;-79
2021/06/23 06:37:44;;;;;;;14.57;3.65;;;;;;;15.87;93.82;101046.03;5054986;28;20052;-79
2021/06/23 06:40:10;;;;;;;18.55;3.53;;;;;;;15.10;98.88;101055.34;5055050;28;20029;-79
2021/06/23 06:42:35;;;;;;;14.00;3.38;;;;;;;15.24;100.00;101055.78;5056891;28;20029;-79
2021/06/23 06:45:01;;;;;;;17.00;3.30;;;;;;;15.51;98.85;101055.84;5055351;28;20025;-79
2021/06/23 06:47:26;;;;;;;15.75;3.15;;;;;;;15.72;97.52;101063.06;5056483;28;20025;-79
2021/06/23 06:49:51;;;;;;;15.88;4.03;;;;;;;16.26;94.17;101061.31;5058413;28;20366;-79
2021/06/23 06:52:17;;;;;;;16.00;3.30;;;;;;;16.11;94.82;101067.94;5063484;28;20032;-80
2021/06/23 06:54:42;;;;;;;14.98;3.38;;;;;;;16.25;93.31;101065.69;5058357;28;20425;-80
2021/06/23 06:57:07;;;;;;;21.52;3.58;;;;;;;16.43;93.35;101060.75;5054719;28;20032;-80
2021/06/23 06:59:33;;;;;;;17.85;4.47;;;;;;;16.06;93.86;101056.75;5056975;28;20033;-79
2021/06/23 07:01:59;;;;;;;18.05;4.35;;;;;;;16.45;93.13;101056.31;5054504;28;20123;-79
2021/06/23 07:04:24;;;;;;;15.77;2.75;;;;;;;16.33;91.43;101052.34;5054404;28;20023;-79
2021/06/23 07:06:49;;;;;;;14.68;3.03;;;;;;;16.47;92.57;101054.47;5056850;28;20025;-79
2021/06/23 07:09:15;;;;;;;14.20;3.13;;;;;;;16.99;87.63;101045.66;5059582;28;20066;-79
2021/06/23 07:11:42;;;;;;;12.52;3.58;;;;;;;18.22;85.76;101040.81;5056765;28;20076;-79
2021/06/23 07:14:07;;;;;;;11.32;3.05;;;;;;;18.63;79.95;101052.19;5056213;28;20025;-79
2021/06/23 07:16:32;;;;;;;14.43;3.35;;;;;;;18.44;78.25;101047.75;5059221;28;20029;-79
2021/06/23 07:18:58;;;;;;;14.77;2.95;;;;;;;17.77;81.94;101044.44;5061471;28;20036;-80
2021/06/23 07:21:23;;;;;;;13.02;3.42;;;;;;;17.32;84.09;101054.91;5062331;28;20025;-80
2021/06/23 07:23:53;;;;;;;13.07;2.92;;;;;;;17.45;84.37;101064.00;5062744;28;20021;-80
2021/06/23 07:26:18;;;;;;;13.88;3.13;;;;;;;17.25;85.62;101057.78;5062720;28;20032;-80
2021/06/23 07:28:52;;;;;;;16.70;3.13;;;;;;;16.69;88.55;101063.31;5062560;28;20017;-79
2021/06/23 07:31:31;;;;;;;;;;;;;;;16.68;90.09;101055.50;5061771;28;20021;-80
2021/06/23 07:36:43;;;;;;;14.10;3.15;;;;;;;16.75;87.37;101055.28;5063869;28;20034;-80
2021/06/23 07:39:11;;;;;;;11.23;2.83;;;;;;;17.32;84.42;101052.31;5061262;28;20043;-80
2021/06/23 07:41:39;;;;;;;18.33;2.53;;;;;;;17.41;82.86;101055.41;5059977;28;20108;-80
2021/06/23 07:44:05;;;;;;;11.43;2.60;;;;;;;17.59;83.74;101059.09;5059469;28;20028;-80
2021/06/23 07:46:36;;;;;;;10.13;2.88;;;;;;;16.80;85.32;101062.94;5059976;28;20024;-80
2021/06/23 07:49:01;;;;;;;14.40;2.92;;;;;;;16.16;89.38;101057.28;5061482;28;20036;-79
2021/06/23 07:54:32;;;;;;;13.70;2.90;;;;;;;16.53;92.48;101073.47;5045526;28;20036;-80
2021/06/23 08:10:28;;;;;;;11.85;2.67;;;;;;;16.10;90.26;101088.00;5063440;28;20497;-79
2021/06/23 08:12:58;;;;;;;11.63;2.40;;;;;;;15.67;92.40;101085.91;5063249;28;20048;-79
2021/06/23 08:15:26;;;;;;;11.65;2.80;;;;;;;15.69;93.75;101083.22;5064492;28;20074;-79
2021/06/23 08:17:52;;;;;;;10.02;2.65;;;;;;;16.18;90.55;101092.13;5068789;28;20029;-80
2021/06/23 08:20:17;;;;;;;10.10;2.80;;;;;;;16.76;87.88;101093.63;5064544;28;20051;-80
2021/06/23 08:22:42;;;;;;;13.68;3.03;;;;;;;17.39;88.64;101083.47;5064208;28;20404;-81
2021/06/23 08:25:08;;;;;;;10.05;2.63;;;;;;;17.50;83.68;101090.94;5060276;28;20021;-80
2021/06/23 08:27:34;;;;;;;14.60;2.70;;;;;;;17.62;81.97;101093.06;5062327;28;20032;-80
2021/06/23 08:29:59;;;;;;;12.52;3.25;;;;;;;17.16;84.37;101102.69;5059711;28;20103;-80
2021/06/23 08:32:24;;;;;;;12.93;2.83;;;;;;;17.02;85.68;101092.69;5060760;28;20056;-80
2021/06/23 08:34:50;;;;;;;10.52;3.00;;;;;;;16.82;87.06;101100.44;5059151;28;20079;-80
2021/06/23 08:37:15;;;;;;;10.07;2.50;;;;;;;16.37;89.03;101097.59;5059954;28;20024;-80
2021/06/23 08:39:41;;;;;;;10.38;3.05;;;;;;;16.75;86.14;101102.41;5060168;28;20036;-80
2021/06/23 08:42:07;;;;;;;8.45;2.10;;;;;;;17.75;79.51;101095.22;5059143;28;20033;-80
2021/06/23 08:44:33;;;;;;;13.70;2.83;;;;;;;17.98;79.19;101092.56;5057749;28;20056;-80
2021/06/23 08:47:00;;;;;;;11.93;3.60;;;;;;;17.13;82.76;101097.56;5059804;28;20024;-80
2021/06/23 08:49:27;;;;;;;9.45;2.83;;;;;;;16.33;85.70;101096.84;5059566;28;20031;-80
2021/06/23 08:51:53;;;;;;;12.00;2.75;;;;;;;16.11;90.40;101088.84;5058889;28;20029;-81
2021/06/23 08:54:19;;;;;;;9.93;2.40;;;;;;;15.96;92.02;101084.13;5057287;28;20029;-80
2021/06/23 08:56:44;;;;;;;13.07;3.25;;;;;;;15.96;90.45;101089.34;5059857;28;20036;-80
2021/06/23 08:59:09;;;;;;;8.20;2.30;;;;;;;16.19;88.79;101086.81;5057534;28;20044;-80
2021/06/23 09:01:35;;;;;;;9.10;2.65;;;;;;;16.80;86.79;101084.75;5058123;28;20017;-80
2021/06/23 09:04:18;;;;;;;13.05;2.47;;;;;;;17.57;84.66;101084.53;5058277;28;20070;-80
2021/06/23 09:06:58;;;;;;;12.82;2.78;;;;;;;18.83;82.34;101092.50;5063114;28;20101;-80
2021/06/23 09:09:28;;;;;;;11.50;2.70;;;;;;;17.99;80.24;101089.03;5061178;28;20021;-80
2021/06/23 09:12:19;;;;;;;8.77;1.85;;;;;;;19.92;69.43;101084.84;5061383;28;20029;-80
2021/06/23 09:14:44;;;;;;;10.35;2.25;;;;;;;20.82;65.62;101080.31;5058261;28;20032;-80
2021/06/23 09:17:15;;;;;;;10.75;3.13;;;;;;;21.11;63.98;101083.19;5059379;28;20025;-81
2021/06/23 09:19:43;;;;;;;9.15;2.20;;;;;;;19.05;70.85;101090.63;5060443;28;20036;-80
2021/06/23 09:22:45;;;;;;;6.75;2.03;;;;;;;17.99;73.87;101083.78;5059310;28;20021;-80
2021/06/23 09:25:10;;;;;;;7.47;2.10;;;;;;;20.91;64.52;101085.09;5048679;28;20032;-81
2021/06/23 09:27:36;;;;;;;10.70;2.73;;;;;;;20.62;59.43;101088.41;5060336;28;20052;-81
2021/06/23 09:30:23;;;;;;;9.98;1.60;;;;;;;22.83;52.01;101081.28;5060743;28;20033;-80
2021/06/23 09:33:10;;;;;;;7.35;1.40;;;;;;;21.30;57.78;101083.88;5060097;28;20029;-80
2021/06/23 09:35:37;;;;;;;10.57;2.08;;;;;;;20.82;59.96;101080.31;5059013;28;20024;-80
2021/06/23 09:38:03;;;;;;;9.30;2.28;;;;;;;20.30;64.04;101075.06;5061082;28;20369;-80
2021/06/23 09:40:31;;;;;;;7.72;2.05;;;;;;;19.50;65.72;101078.91;5060800;28;20450;-79
2021/06/23 09:43:02;;;;;;;8.75;1.80;;;;;;;19.05;66.64;101085.38;5055182;28;20021;-79
2021/06/23 09:45:31;;;;;;;8.23;2.08;;;;;;;18.64;71.04;101077.50;5054616;28;20465;-78
2021/06/23 09:48:00;;;;;;;7.22;1.73;;;;;;;18.45;68.62;101076.63;5054310;28;20025;-78
2021/06/23 09:50:28;;;;;;;9.50;2.47;;;;;;;19.74;65.76;101082.19;5054883;28;20051;-78
2021/06/23 09:52:55;;;;;;;6.93;1.80;;;;;;;18.53;69.69;101089.41;5053706;28;20035;-78
2021/06/23 09:55:31;;;;;;;7.43;1.92;;;;;;;18.24;73.06;101088.88;5054654;28;20052;-78
2021/06/23 09:58:21;;;;;;;8.50;2.03;;;;;;;18.08;72.66;101082.56;5054884;28;20035;-78
2021/06/23 10:01:03;;;;;;;9.35;2.15;;;;;;;18.05;74.16;101077.44;5055630;28;20029;-79
2021/06/23 10:03:38;;;;;;;7.88;1.85;;;;;;;18.71;73.06;101087.75;5054473;28;20060;-78
2021/06/23 10:06:22;;;;;;;10.07;2.30;;;;;;;20.23;67.26;101073.69;5055169;28;20362;-78
2021/06/23 10:08:47;;;;;;;11.95;2.10;;;;;;;20.72;62.74;101058.00;5058955;28;20025;-78
2021/06/23 10:11:13;;;;;;;8.27;2.10;;;;;;;19.62;66.99;101061.69;5055065;28;20063;-78
2021/06/23 10:13:39;;;;;;;9.18;2.88;;;;;;;19.25;71.31;101062.59;5058760;28;20361;-80
2021/06/23 10:16:05;;;;;;;9.13;2.35;;;;;;;19.57;69.65;101070.75;5057224;28;20088;-80
2021/06/23 10:18:31;;;;;;;8.48;2.38;;;;;;;20.56;65.74;101073.75;5059660;28;20079;-80
2021/06/23 10:20:56;;;;;;;9.50;2.42;;;;;;;23.13;57.95;101083.88;5058512;28;20013;-81
2021/06/23 10:23:23;;;;;;;8.13;2.25;;;;;;;23.30;51.86;101081.00;5059789;28;20032;-81
2021/06/23 10:25:50;;;;;;;8.55;2.00;;;;;;;21.57;58.63;101075.41;5060256;28;20025;-80
2021/06/23 10:28:17;;;;;;;8.27;1.88;;;;;;;20.29;59.47;101075.13;5061902;28;20028;-80
2021/06/23 10:30:43;;;;;;;8.00;2.15;;;;;;;19.78;63.88;101061.84;5059525;28;20043;-80
2021/06/23 10:33:09;;;;;;;7.40;2.03;;;;;;;19.64;66.47;101066.88;5059202;28;20029;-80
2021/06/23 10:35:34;;;;;;;7.22;1.80;;;;;;;19.64;63.49;101061.63;5061579;28;20017;-80
2021/06/23 10:38:01;;;;;;;11.43;2.80;;;;;;;19.67;66.46;101072.03;5060320;28;20036;-81
2021/06/23 10:40:27;;;;;;;10.32;2.00;;;;;;;20.54;62.48;101074.78;5055399;28;20017;-79
2021/06/23 10:42:52;;;;;;;7.82;1.83;;;;;;;22.28;56.91;101073.09;5053942;28;20068;-78
2021/06/23 10:45:18;;;;;;;11.38;2.28;;;;;;;23.20;53.54;101067.50;5054334;28;20021;-78
2021/06/23 10:47:45;;;;;;;7.80;1.80;;;;;;;22.94;56.23;101073.59;5055212;28;20051;-78
2021/06/23 10:50:17;;;;;;;8.70;2.38;;;;;;;24.35;49.08;101064.44;5055384;28;20432;-78
2021/06/23 10:52:46;;;;;;;8.75;2.10;;;;;;;21.62;55.21;101076.00;5057156;28;20032;-78
2021/06/23 10:55:14;;;;;;;8.70;2.35;;;;;;;20.64;56.03;101079.50;5058437;28;20036;-78
2021/06/23 10:57:45;;;;;;;8.65;1.95;;;;;;;19.29;56.08;101079.91;5057784;28;20025;-78
2021/06/23 11:00:10;;;;;;;10.05;2.67;;;;;;;19.51;58.88;101085.88;5057910;28;20024;-78
2021/06/23 11:02:39;;;;;;;7.72;1.98;;;;;;;19.59;62.96;101093.44;5057750;28;20032;-79
2021/06/23 11:05:06;;;;;;;11.77;3.28;;;;;;;19.47;65.04;101094.84;5061708;28;20469;-80
2021/06/23 11:07:38;;;;;;;8.70;2.65;;;;;;;19.57;62.68;101094.41;5060701;28;20033;-80
2021/06/23 11:10:31;;;;;;;10.10;2.25;;;;;;;19.86;62.64;101090.41;5058980;28;20048;-80
2021/06/23 11:12:58;;;;;;;9.07;2.45;;;;;;;19.75;63.69;101102.31;5055078;28;20056;-78
2021/06/23 11:15:36;;;;;;;8.93;2.85;;;;;;;20.25;61.58;101090.25;5057873;28;20392;-80
2021/06/23 11:18:34;;;;;;;9.55;2.45;;;;;;;20.64;60.57;101099.72;5060694;28;20037;-80
2021/06/23 11:21:00;;;;;;;10.27;2.58;;;;;;;20.07;63.53;101102.53;5063258;28;20024;-80
2021/06/23 11:23:51;;;;;;;12.40;2.45;;;;;;;19.30;64.62;101107.91;5064080;28;20025;-80
2021/06/23 11:26:23;;;;;;;9.40;2.00;;;;;;;18.67;64.67;101100.19;5061237;28;20477;-80
2021/06/23 11:28:58;;;;;;;10.88;2.22;;;;;;;19.11;65.16;101112.31;5061707;28;20029;-79
2021/06/23 11:31:43;;;;;;;8.60;1.80;;;;;;;19.27;62.17;101114.19;5057998;28;20507;-78
2021/06/23 11:34:10;;;;;;;9.25;2.03;;;;;;;19.10;62.88;101116.72;5057058;28;20024;-78
2021/06/23 11:36:35;;;;;;;10.90;2.53;;;;;;;18.73;68.29;101113.09;5059457;28;20083;-78
2021/06/23 11:39:03;;;;;;;12.20;2.80;;;;;;;18.98;66.80;101109.38;5059575;28;20465;-78
2021/06/23 11:41:28;;;;;;;8.80;2.15;;;;;;;18.81;68.56;101110.09;5060552;28;20021;-78
2021/06/23 11:43:54;;;;;;;8.27;2.25;;;;;;;19.18;67.03;101113.75;5054632;28;20116;-78
2021/06/23 11:46:19;;;;;;;11.10;3.20;;;;;;;19.27;65.39;101105.44;5056745;28;20393;-78
2021/06/23 11:48:45;;;;;;;6.93;1.70;;;;;;;19.72;61.85;101101.63;5055062;28;20106;-78